Belvedere, South Carolina
Current Conditions -  °F | °C
As of 5:12 PM on Sunday 21 Dec 2014 (Local Time) from KDNL Reporting Station
Light Rain Light Rain  
Wind Chill: 52°   Ceiling: 5000
Heat Index: 52°   Visibility: 8mi
Dew Point: 45°   Wind: 8mph
Humidity: 77%   Direction: 70°ENE
Pressure: 30.14"   Gusts: NA
Location:  33.5092°N, 81.9331°W
Report Text: KDNL 212212Z AUTO 07007KT 8SM -RA SCT028 OVC050 11/07 A3014 RMK AO2 P0000 T01110072
Loading
Personal Weather Stations






























Interactive Weather Map New forecast layout! Learn more

10-Day Weather Forecast

Advertisements
Track Severe Weather on mobile